Time;durP1;ratioP1;P1;durP2;ratioP2;P2;SDS_P1;SDS_P2;PMS_P1;PMS_P2;Temp;Humidity;BMP_temperature;BMP_pressure;BME280_temperature;BME280_humidity;BME280_pressure;Samples;Min_cycle;Max_cycle;Signal;HPM_P1;HPM_P2
2022/09/15 00:01:13;;;;;;;33.15;16.33;;;13.70;99.90;;;;;;4970888;28;20027;-75
2022/09/15 00:03:39;;;;;;;30.67;16.13;;;13.80;99.90;;;;;;4970276;28;20398;-75
2022/09/15 00:06:06;;;;;;;27.38;15.23;;;13.80;99.90;;;;;;4950514;28;20071;-75
2022/09/15 00:08:31;;;;;;;30.23;16.90;;;13.80;99.90;;;;;;4952913;28;20034;-76
2022/09/15 00:11:13;;;;;;;30.08;16.50;;;13.90;99.90;;;;;;4966757;28;20034;-76
2022/09/15 00:13:39;;;;;;;26.97;15.63;;;13.90;99.90;;;;;;4969034;28;20038;-76
2022/09/15 00:16:07;;;;;;;25.23;15.05;;;13.90;99.90;;;;;;4968996;28;20487;-75
2022/09/15 00:18:33;;;;;;;25.63;15.02;;;14.00;99.90;;;;;;4970323;28;20039;-75
2022/09/15 00:20:59;;;;;;;32.70;16.73;;;14.00;99.90;;;;;;4967866;28;20074;-76
2022/09/15 00:23:24;;;;;;;28.52;16.48;;;14.00;99.90;;;;;;4969152;28;20423;-76
2022/09/15 00:25:51;;;;;;;29.98;16.17;;;14.00;99.90;;;;;;4970066;28;20387;-76
2022/09/15 00:28:20;;;;;;;30.40;15.48;;;14.10;99.90;;;;;;4968075;28;20034;-75
2022/09/15 00:30:48;;;;;;;34.58;16.27;;;14.10;99.90;;;;;;4969536;28;20066;-75
2022/09/15 00:33:15;;;;;;;25.00;15.35;;;14.10;99.90;;;;;;4949985;28;20195;-76
2022/09/15 00:35:43;;;;;;;27.65;15.65;;;14.20;99.90;;;;;;4967812;28;20058;-75
2022/09/15 00:38:10;;;;;;;32.25;16.00;;;14.20;99.90;;;;;;4967569;28;20055;-75
2022/09/15 00:41:03;;;;;;;33.72;17.17;;;14.20;99.90;;;;;;4952935;28;20039;-75
2022/09/15 00:43:46;;;;;;;;;;;14.20;99.90;;;;;;4962469;28;20114;-76
2022/09/15 00:46:13;;;;;;;26.95;15.32;;;14.20;99.90;;;;;;4967653;28;19926;-76
2022/09/15 00:48:44;;;;;;;32.88;16.10;;;14.20;99.90;;;;;;4967566;28;20034;-76
2022/09/15 00:51:13;;;;;;;30.48;16.58;;;14.20;99.90;;;;;;4969006;28;20403;-76
2022/09/15 00:53:39;;;;;;;29.00;15.98;;;14.30;99.90;;;;;;4969959;28;20031;-75
2022/09/15 00:56:06;;;;;;;26.50;15.80;;;14.30;99.90;;;;;;4969962;28;20054;-75
2022/09/15 00:58:39;;;;;;;28.67;16.98;;;14.30;99.90;;;;;;4967516;28;20318;-75
2022/09/15 01:01:06;;;;;;;30.27;15.82;;;14.30;99.90;;;;;;4969384;28;20034;-76
2022/09/15 01:03:34;;;;;;;30.25;16.50;;;14.40;99.90;;;;;;4969407;28;20082;-76
2022/09/15 01:06:35;;;;;;;28.27;16.55;;;14.40;99.90;;;;;;4967216;28;20514;-75
2022/09/15 01:09:14;;;;;;;25.55;15.07;;;14.40;99.90;;;;;;4968995;28;20117;-75
2022/09/15 01:11:40;;;;;;;27.90;16.05;;;14.40;99.90;;;;;;4969402;28;20431;-76
2022/09/15 01:14:07;;;;;;;28.17;16.60;;;14.50;99.90;;;;;;4970040;28;20027;-76
2022/09/15 01:17:08;;;;;;;26.08;15.90;;;14.50;99.90;;;;;;4972079;28;20089;-75
2022/09/15 01:20:10;;;;;;;23.70;14.63;;;14.60;99.90;;;;;;4969017;28;20055;-75
2022/09/15 01:23:26;;;;;;;26.58;15.75;;;14.50;99.90;;;;;;4969523;28;20037;-75
2022/09/15 01:26:16;;;;;;;23.70;15.02;;;14.60;99.90;;;;;;4965737;28;20049;-76
2022/09/15 01:29:03;;;;;;;25.52;14.75;;;14.50;99.90;;;;;;4966531;28;20503;-75
2022/09/15 01:33:02;;;;;;;25.40;14.50;;;14.60;99.90;;;;;;4969595;28;20041;-75
2022/09/15 01:34:27;;;;;;;24.85;15.30;;;14.60;99.90;;;;;;4968633;28;20054;-75
2022/09/15 01:37:01;;;;;;;25.17;14.55;;;14.60;99.90;;;;;;4965605;28;20066;-75
2022/09/15 01:39:37;;;;;;;22.92;14.50;;;14.60;99.90;;;;;;4968721;28;20372;-76
2022/09/15 01:42:06;;;;;;;27.80;15.60;;;14.60;99.90;;;;;;4969445;28;20034;-75
2022/09/15 01:44:44;;;;;;;25.85;15.40;;;14.50;99.90;;;;;;4964660;28;20105;-75
2022/09/15 01:47:14;;;;;;;22.08;14.45;;;14.50;99.90;;;;;;4965985;28;20487;-75
2022/09/15 01:49:55;;;;;;;26.70;14.80;;;14.50;99.90;;;;;;4969346;28;20035;-75
2022/09/15 01:52:23;;;;;;;28.77;14.45;;;14.50;99.90;;;;;;4967305;28;20039;-76
2022/09/15 01:54:52;;;;;;;26.48;15.32;;;14.40;99.90;;;;;;4968028;28;20106;-75
2022/09/15 01:57:21;;;;;;;22.02;14.57;;;14.50;99.90;;;;;;4969349;28;20048;-75
2022/09/15 01:59:52;;;;;;;28.00;14.88;;;14.40;99.90;;;;;;4949289;28;20026;-75
2022/09/15 02:02:56;;;;;;;26.00;14.57;;;14.40;99.90;;;;;;4968110;28;20034;-75
2022/09/15 02:05:29;;;;;;;26.55;14.50;;;14.40;99.90;;;;;;4935236;28;21419;-76
2022/09/15 02:08:09;;;;;;;25.65;13.13;;;14.40;99.90;;;;;;4965144;28;20058;-75
2022/09/15 02:10:44;;;;;;;28.65;14.35;;;14.40;99.90;;;;;;4965565;28;20144;-76
2022/09/15 02:13:15;;;;;;;25.02;14.75;;;14.40;99.90;;;;;;4966602;28;20114;-76
2022/09/15 02:15:47;;;;;;;27.25;14.18;;;14.40;99.90;;;;;;4963480;28;20041;-75
2022/09/15 02:18:21;;;;;;;27.75;15.23;;;14.40;99.90;;;;;;4967572;28;20042;-76
2022/09/15 02:20:52;;;;;;;23.48;14.93;;;14.30;99.90;;;;;;4960602;28;20031;-75
2022/09/15 02:23:25;;;;;;;27.48;15.55;;;14.30;99.90;;;;;;4966021;28;20364;-75
2022/09/15 02:25:54;;;;;;;27.88;15.32;;;14.30;99.90;;;;;;4965058;28;20125;-76
2022/09/15 02:28:24;;;;;;;26.60;14.80;;;14.20;99.90;;;;;;4964919;28;20089;-75
2022/09/15 02:30:54;;;;;;;26.13;14.93;;;14.20;99.90;;;;;;4954836;28;20032;-75
2022/09/15 02:33:23;;;;;;;29.90;14.88;;;14.10;99.90;;;;;;4966200;28;20403;-75
2022/09/15 02:35:50;;;;;;;25.65;14.75;;;14.10;99.90;;;;;;4965621;28;20027;-75
2022/09/15 02:38:17;;;;;;;24.90;14.00;;;14.10;99.90;;;;;;4964901;28;20138;-75
2022/09/15 02:40:43;;;;;;;24.73;15.48;;;14.10;99.90;;;;;;4963952;28;20035;-76
2022/09/15 02:43:15;;;;;;;24.65;15.65;;;14.00;99.90;;;;;;4968163;28;20038;-75
2022/09/15 02:45:40;;;;;;;29.02;15.13;;;14.00;99.90;;;;;;4944095;28;20049;-75
2022/09/15 02:48:10;;;;;;;24.60;14.73;;;14.00;99.90;;;;;;4967074;28;20038;-75
2022/09/15 02:50:36;;;;;;;30.02;15.35;;;14.00;99.90;;;;;;4965864;28;21787;-76
2022/09/15 02:53:02;;;;;;;25.95;15.38;;;14.00;99.90;;;;;;4944659;28;20058;-75
2022/09/15 02:55:28;;;;;;;29.92;15.95;;;14.10;99.90;;;;;;4965361;28;20058;-76
2022/09/15 02:57:57;;;;;;;24.75;13.90;;;14.10;99.90;;;;;;4963230;28;20031;-75
2022/09/15 03:00:23;;;;;;;27.42;15.68;;;14.10;99.90;;;;;;4965679;28;20495;-76
2022/09/15 03:02:52;;;;;;;26.08;14.88;;;14.00;99.90;;;;;;4963182;28;20043;-75
2022/09/15 03:05:21;;;;;;;25.50;15.68;;;14.10;99.90;;;;;;4967532;28;20455;-76
2022/09/15 03:07:46;;;;;;;23.73;14.52;;;14.10;99.90;;;;;;4963784;28;20031;-76
2022/09/15 03:10:13;;;;;;;23.50;14.45;;;14.00;99.90;;;;;;4966312;28;20094;-75
2022/09/15 03:12:44;;;;;;;23.65;14.52;;;14.00;99.90;;;;;;4966150;28;20085;-75
2022/09/15 03:15:12;;;;;;;23.75;14.25;;;14.00;99.90;;;;;;4966456;28;20075;-75
2022/09/15 03:17:40;;;;;;;26.00;14.68;;;14.00;99.90;;;;;;4966075;28;20070;-75
2022/09/15 03:20:08;;;;;;;23.20;14.15;;;14.00;99.90;;;;;;4969779;28;20368;-75
2022/09/15 03:22:34;;;;;;;19.20;13.38;;;14.00;99.90;;;;;;4968896;28;20517;-75
2022/09/15 03:25:00;;;;;;;25.83;14.60;;;14.00;99.90;;;;;;4952190;28;20034;-75
2022/09/15 03:27:26;;;;;;;26.88;14.25;;;14.00;99.90;;;;;;4968085;28;20467;-75
2022/09/15 03:29:52;;;;;;;22.48;13.98;;;14.00;99.90;;;;;;4969204;28;20042;-75
2022/09/15 03:32:18;;;;;;;24.00;13.15;;;14.10;99.90;;;;;;4970220;28;20082;-75
2022/09/15 03:34:44;;;;;;;24.75;13.93;;;14.10;99.90;;;;;;4968720;28;20054;-76
2022/09/15 03:37:10;;;;;;;21.35;13.90;;;14.10;99.90;;;;;;4970345;28;20073;-75
2022/09/15 03:39:36;;;;;;;19.05;12.63;;;14.10;99.90;;;;;;4969545;28;20372;-75
2022/09/15 03:42:03;;;;;;;21.23;12.65;;;14.10;99.90;;;;;;4969152;28;20023;-76
2022/09/15 03:44:28;;;;;;;20.75;12.30;;;14.20;99.90;;;;;;4969870;28;20054;-76
2022/09/15 03:46:54;;;;;;;21.58;12.90;;;14.10;99.90;;;;;;4966234;28;20038;-76
2022/09/15 03:49:20;;;;;;;23.08;14.20;;;14.20;99.90;;;;;;4969866;28;20045;-75
2022/09/15 03:51:45;;;;;;;18.55;12.20;;;14.20;99.90;;;;;;4970165;28;20592;-76
2022/09/15 03:54:11;;;;;;;22.00;13.82;;;14.20;99.90;;;;;;4967313;28;20101;-75
2022/09/15 03:56:37;;;;;;;21.52;12.43;;;14.20;99.90;;;;;;4968526;28;20069;-76
2022/09/15 03:59:04;;;;;;;20.95;12.10;;;14.20;99.90;;;;;;4968821;28;20475;-75
2022/09/15 04:01:30;;;;;;;16.23;11.13;;;14.20;99.90;;;;;;4968229;28;20034;-76
2022/09/15 04:03:57;;;;;;;18.85;12.65;;;14.10;99.90;;;;;;4969880;28;20058;-75
2022/09/15 04:06:24;;;;;;;20.40;12.32;;;14.20;99.90;;;;;;4967363;28;20114;-76
2022/09/15 04:08:50;;;;;;;17.75;11.18;;;14.20;99.90;;;;;;4968529;28;20030;-76
2022/09/15 04:11:17;;;;;;;22.05;13.40;;;14.20;99.90;;;;;;4968086;28;20062;-75
2022/09/15 04:13:42;;;;;;;19.77;13.07;;;14.20;99.90;;;;;;4968500;28;20031;-75
2022/09/15 04:16:22;;;;;;;21.00;12.27;;;14.20;99.90;;;;;;4967270;28;20042;-76
2022/09/15 04:18:49;;;;;;;17.38;11.35;;;14.20;99.90;;;;;;4968791;28;20061;-75
2022/09/15 04:21:17;;;;;;;18.67;11.88;;;14.20;99.90;;;;;;4953364;28;20031;-75
2022/09/15 04:23:44;;;;;;;16.20;11.63;;;14.20;99.90;;;;;;4958376;28;20031;-75
2022/09/15 04:26:30;;;;;;;19.08;12.50;;;14.20;99.90;;;;;;4968426;28;20030;-76
2022/09/15 04:28:56;;;;;;;19.88;11.88;;;14.20;99.90;;;;;;4969978;28;20018;-75
2022/09/15 04:31:22;;;;;;;17.42;11.70;;;14.20;99.90;;;;;;4965884;28;20480;-76
2022/09/15 04:33:50;;;;;;;20.02;11.52;;;14.20;99.90;;;;;;4970157;28;20054;-75
2022/09/15 04:36:18;;;;;;;16.85;12.43;;;14.20;99.90;;;;;;4969121;28;20045;-76
2022/09/15 04:38:44;;;;;;;18.60;11.50;;;14.20;99.90;;;;;;4968837;28;20041;-76
2022/09/15 04:41:10;;;;;;;19.20;11.63;;;14.20;99.90;;;;;;4954525;28;20031;-75
2022/09/15 04:43:36;;;;;;;18.15;11.57;;;14.20;99.90;;;;;;4970671;28;20042;-75
2022/09/15 04:46:02;;;;;;;17.63;12.02;;;14.20;99.90;;;;;;4967300;28;20047;-76
2022/09/15 04:48:29;;;;;;;17.45;11.65;;;14.20;99.90;;;;;;4971375;28;20444;-76
2022/09/15 04:51:04;;;;;;;17.08;11.13;;;14.20;99.90;;;;;;4968965;28;20033;-76
2022/09/15 04:53:30;;;;;;;18.85;11.13;;;14.20;99.90;;;;;;4967476;28;20448;-75
2022/09/15 04:56:06;;;;;;;18.52;12.15;;;14.20;99.90;;;;;;4961247;28;20038;-77
2022/09/15 04:58:44;;;;;;;19.17;11.48;;;14.10;99.90;;;;;;4962143;28;20022;-76
2022/09/15 05:01:22;;;;;;;17.83;11.43;;;14.10;99.90;;;;;;4966283;28;20033;-76
2022/09/15 05:03:48;;;;;;;23.80;11.88;;;14.10;99.90;;;;;;4967436;28;20093;-76
2022/09/15 05:06:16;;;;;;;17.90;11.23;;;14.10;99.90;;;;;;4966624;28;20034;-76
2022/09/15 05:08:45;;;;;;;19.15;11.18;;;14.10;99.90;;;;;;4969626;28;20391;-76
2022/09/15 05:11:11;;;;;;;15.70;10.52;;;14.10;99.90;;;;;;4969864;28;20037;-76
2022/09/15 05:13:38;;;;;;;16.92;10.48;;;14.10;99.90;;;;;;4950611;28;20034;-76
2022/09/15 05:16:10;;;;;;;16.73;11.60;;;14.10;99.90;;;;;;4957827;28;20030;-76
2022/09/15 05:18:36;;;;;;;19.92;11.07;;;14.10;99.90;;;;;;4944231;28;20023;-75
2022/09/15 05:21:04;;;;;;;16.42;11.30;;;14.10;99.90;;;;;;4972117;28;20041;-76
2022/09/15 05:23:29;;;;;;;17.38;11.02;;;14.10;99.90;;;;;;4970745;28;20046;-76
2022/09/15 05:25:59;;;;;;;16.13;11.10;;;14.10;99.90;;;;;;4969110;28;20451;-76
2022/09/15 05:28:25;;;;;;;17.83;11.88;;;14.10;99.90;;;;;;4969545;28;20483;-77
2022/09/15 05:30:52;;;;;;;14.02;9.77;;;14.10;99.90;;;;;;4964837;28;20070;-77
2022/09/15 05:33:19;;;;;;;17.40;10.35;;;14.20;99.90;;;;;;4963756;28;20050;-77
2022/09/15 05:35:53;;;;;;;19.30;11.70;;;14.20;99.90;;;;;;4970651;28;20106;-76
2022/09/15 05:38:20;;;;;;;14.52;10.30;;;14.20;99.90;;;;;;4968408;28;20058;-76
2022/09/15 05:40:46;;;;;;;17.25;10.25;;;14.20;99.90;;;;;;4967607;28;20430;-77
2022/09/15 05:43:12;;;;;;;16.73;10.57;;;14.20;99.90;;;;;;4975027;28;20403;-76
2022/09/15 05:45:41;;;;;;;13.73;8.90;;;14.20;99.90;;;;;;4966119;28;20035;-76
2022/09/15 05:48:06;;;;;;;14.23;10.48;;;14.30;99.90;;;;;;4974281;28;20058;-77
2022/09/15 05:50:31;;;;;;;17.92;10.20;;;14.30;99.90;;;;;;4970107;28;20069;-77
2022/09/15 05:52:57;;;;;;;11.32;8.38;;;14.30;99.90;;;;;;4977146;28;20498;-76
2022/09/15 05:55:23;;;;;;;16.17;7.75;;;14.40;99.90;;;;;;4973657;28;20101;-77
2022/09/15 05:57:48;;;;;;;11.15;6.75;;;14.40;99.90;;;;;;4959012;28;20058;-76
2022/09/15 06:00:14;;;;;;;11.65;7.57;;;14.40;99.90;;;;;;4978645;28;20018;-77
2022/09/15 06:02:40;;;;;;;9.98;6.68;;;14.50;99.90;;;;;;4974030;28;20031;-77
2022/09/15 06:05:06;;;;;;;10.60;6.57;;;14.50;99.90;;;;;;4970596;28;20058;-77
2022/09/15 06:07:31;;;;;;;14.38;6.35;;;14.50;99.90;;;;;;4967286;28;20082;-77
2022/09/15 06:09:57;;;;;;;9.65;6.03;;;14.50;99.90;;;;;;4973500;28;20031;-76
2022/09/15 06:12:22;;;;;;;11.00;5.75;;;14.60;99.90;;;;;;4955459;28;20543;-76
2022/09/15 06:14:49;;;;;;;12.30;5.80;;;14.60;99.90;;;;;;4974457;28;20030;-76
2022/09/15 06:17:19;;;;;;;9.20;5.05;;;14.60;99.90;;;;;;4971146;28;20132;-77
2022/09/15 06:19:44;;;;;;;10.63;5.30;;;14.70;99.90;;;;;;4981888;28;20360;-76
2022/09/15 06:22:11;;;;;;;11.02;7.65;;;14.80;99.90;;;;;;4973826;28;20042;-76
2022/09/15 06:24:36;;;;;;;13.00;7.60;;;14.80;99.90;;;;;;4973350;28;20082;-77
2022/09/15 06:27:02;;;;;;;12.60;6.70;;;14.90;99.90;;;;;;4973150;28;20495;-77
2022/09/15 06:29:28;;;;;;;12.52;5.20;;;14.90;99.90;;;;;;4973895;28;20086;-77
2022/09/15 06:31:55;;;;;;;10.27;5.10;;;15.00;99.90;;;;;;4958836;28;20104;-77
2022/09/15 06:34:21;;;;;;;14.10;5.20;;;15.00;99.90;;;;;;4972660;28;20419;-76
2022/09/15 06:36:46;;;;;;;7.80;4.57;;;15.00;99.90;;;;;;4973963;28;20023;-77
2022/09/15 06:39:12;;;;;;;10.10;4.15;;;15.00;99.90;;;;;;4974676;28;20035;-76
2022/09/15 06:41:38;;;;;;;10.93;4.22;;;15.10;99.90;;;;;;4972701;28;20469;-77
2022/09/15 06:44:03;;;;;;;8.52;4.57;;;15.10;99.90;;;;;;4973852;28;20432;-77
2022/09/15 06:46:29;;;;;;;10.18;4.13;;;15.20;99.90;;;;;;4971865;28;20034;-77
2022/09/15 06:48:55;;;;;;;7.32;3.90;;;15.20;99.90;;;;;;4976450;28;20031;-77
2022/09/15 06:51:23;;;;;;;14.07;3.80;;;15.30;99.90;;;;;;4976451;28;20035;-77
2022/09/15 06:53:49;;;;;;;7.80;3.35;;;15.40;99.90;;;;;;4975921;28;20027;-77
2022/09/15 06:56:17;;;;;;;6.25;3.30;;;15.50;99.90;;;;;;4975850;28;20037;-77
2022/09/15 06:58:43;;;;;;;6.65;2.90;;;15.60;99.90;;;;;;4973808;28;20030;-77
2022/09/15 07:01:18;;;;;;;8.07;2.78;;;15.70;99.90;;;;;;4975255;28;20495;-76
2022/09/15 07:03:43;;;;;;;9.32;2.75;;;15.80;99.90;;;;;;4974150;28;20075;-77
2022/09/15 07:06:11;;;;;;;8.32;1.92;;;15.80;99.90;;;;;;4969841;28;20384;-76
2022/09/15 07:08:36;;;;;;;8.40;1.40;;;15.80;99.90;;;;;;4976734;28;20106;-77
2022/09/15 07:11:03;;;;;;;8.07;1.30;;;15.80;99.90;;;;;;4975663;28;20102;-76
2022/09/15 07:13:28;;;;;;;6.35;1.17;;;15.70;99.90;;;;;;4973627;28;20019;-77
2022/09/15 07:15:57;;;;;;;3.42;0.65;;;15.80;99.90;;;;;;4975050;28;20078;-77
2022/09/15 07:18:23;;;;;;;13.23;1.00;;;15.80;99.90;;;;;;4975290;28;20102;-77
2022/09/15 07:20:49;;;;;;;3.70;0.70;;;15.80;99.90;;;;;;4977090;28;20039;-77
2022/09/15 07:23:16;;;;;;;5.43;0.77;;;15.90;99.90;;;;;;4976775;28;20054;-77
2022/09/15 07:25:44;;;;;;;4.25;0.70;;;15.90;99.90;;;;;;4973439;28;20030;-77
2022/09/15 07:28:16;;;;;;;7.15;0.90;;;16.00;99.90;;;;;;4960232;28;20092;-78
2022/09/15 07:30:42;;;;;;;7.32;0.85;;;16.00;99.90;;;;;;4977301;28;20027;-77
2022/09/15 07:33:11;;;;;;;4.15;0.82;;;16.00;99.90;;;;;;4959677;28;20400;-77
2022/09/15 07:35:43;;;;;;;7.00;0.70;;;16.10;99.90;;;;;;4974379;28;20150;-77
2022/09/15 07:38:10;;;;;;;6.45;0.90;;;16.10;99.90;;;;;;4977315;28;20060;-78
2022/09/15 07:40:37;;;;;;;3.88;0.70;;;16.20;99.90;;;;;;4977523;28;20063;-77
2022/09/15 07:43:03;;;;;;;4.20;0.60;;;16.30;99.90;;;;;;4982815;28;20456;-77
2022/09/15 07:45:29;;;;;;;7.15;1.10;;;16.30;99.90;;;;;;4976285;28;20542;-77
2022/09/15 07:47:55;;;;;;;4.55;0.65;;;16.40;99.90;;;;;;4976566;28;20042;-77
2022/09/15 07:50:20;;;;;;;3.47;0.90;;;16.40;99.90;;;;;;4976369;28;20022;-77
2022/09/15 07:52:46;;;;;;;8.13;1.25;;;16.50;99.90;;;;;;4968871;28;20403;-77
2022/09/15 07:55:11;;;;;;;8.98;1.30;;;16.50;99.90;;;;;;4961605;28;20026;-77
2022/09/15 07:57:37;;;;;;;7.00;1.10;;;16.50;99.90;;;;;;4976036;28;20065;-77
2022/09/15 08:00:03;;;;;;;4.00;0.90;;;16.60;99.90;;;;;;4971219;28;20027;-77
2022/09/15 08:02:29;;;;;;;6.00;1.00;;;16.60;99.90;;;;;;4976415;28;20023;-77
2022/09/15 08:04:56;;;;;;;5.30;1.00;;;16.70;99.90;;;;;;4975653;28;20052;-77
2022/09/15 08:07:22;;;;;;;5.88;0.70;;;16.70;99.90;;;;;;4949580;28;20164;-77
2022/09/15 08:09:48;;;;;;;4.35;0.73;;;16.80;99.90;;;;;;4963150;28;20057;-77
2022/09/15 08:12:17;;;;;;;2.83;0.75;;;16.80;99.90;;;;;;4967072;28;20151;-77
2022/09/15 08:14:43;;;;;;;7.50;0.85;;;16.90;99.90;;;;;;4974961;28;20495;-77
2022/09/15 08:17:09;;;;;;;6.13;0.98;;;16.90;99.90;;;;;;4975794;28;20044;-77
2022/09/15 08:19:34;;;;;;;5.63;1.10;;;17.00;99.90;;;;;;4975603;28;20074;-77
2022/09/15 08:22:01;;;;;;;5.40;0.80;;;17.10;99.90;;;;;;4974653;28;20027;-77
2022/09/15 08:24:27;;;;;;;4.53;0.60;;;17.10;99.90;;;;;;4976175;28;20026;-77
2022/09/15 08:26:53;;;;;;;5.57;0.80;;;17.20;99.90;;;;;;4957683;28;20043;-77
2022/09/15 08:29:19;;;;;;;5.68;0.90;;;17.20;99.90;;;;;;4976260;28;20102;-77
2022/09/15 08:31:46;;;;;;;9.23;0.98;;;17.30;99.90;;;;;;4976211;28;20106;-77
2022/09/15 08:34:13;;;;;;;3.95;0.90;;;17.30;99.90;;;;;;4974816;28;20189;-77
2022/09/15 08:36:39;;;;;;;5.82;1.23;;;17.30;99.90;;;;;;4969771;28;20404;-77
2022/09/15 08:39:05;;;;;;;5.68;1.52;;;17.40;99.90;;;;;;4974274;28;20130;-77
2022/09/15 08:41:37;;;;;;;6.78;1.60;;;17.40;99.90;;;;;;4975310;28;20033;-77
2022/09/15 08:44:29;;;;;;;5.38;2.22;;;17.40;99.90;;;;;;4974797;28;20029;-77
2022/09/15 08:47:34;;;;;;;4.90;0.80;;;17.50;99.90;;;;;;4976127;28;20043;-77
2022/09/15 08:50:00;;;;;;;4.97;0.60;;;17.40;99.90;;;;;;4965157;28;20027;-77
2022/09/15 08:52:32;;;;;;;7.53;1.20;;;17.40;99.90;;;;;;4974567;28;20038;-74
2022/09/15 08:55:01;;;;;;;9.63;0.45;;;17.40;99.90;;;;;;4969673;28;20022;-77
2022/09/15 08:57:27;;;;;;;6.40;0.50;;;17.30;99.90;;;;;;4973785;28;20190;-77
2022/09/15 08:59:53;;;;;;;4.18;0.50;;;17.30;99.90;;;;;;4974173;28;20474;-76
2022/09/15 09:02:51;;;;;;;5.53;0.40;;;17.30;99.90;;;;;;4974409;28;20027;-77
2022/09/15 09:05:28;;;;;;;10.30;0.47;;;17.30;99.90;;;;;;4975077;28;20078;-77
2022/09/15 09:08:11;;;;;;;3.92;0.70;;;17.40;99.90;;;;;;4975186;28;20050;-77
2022/09/15 09:11:03;;;;;;;6.78;0.57;;;17.40;99.90;;;;;;4956013;28;20123;-77
2022/09/15 09:13:35;;;;;;;6.00;0.30;;;17.40;99.90;;;;;;4972807;28;20394;-77
2022/09/15 09:16:16;;;;;;;5.05;0.47;;;17.40;99.90;;;;;;4975606;28;20058;-77
2022/09/15 09:18:48;;;;;;;7.15;0.40;;;17.40;99.90;;;;;;4967357;28;20407;-77
2022/09/15 09:21:32;;;;;;;4.53;0.30;;;17.40;99.90;;;;;;4975348;28;20019;-77
2022/09/15 09:24:39;;;;;;;4.43;0.43;;;17.50;99.90;;;;;;4974061;28;20042;-77
2022/09/15 09:27:13;;;;;;;6.70;0.50;;;17.60;99.90;;;;;;4975247;28;20061;-77
2022/09/15 09:29:52;;;;;;;5.43;0.47;;;17.60;99.90;;;;;;4974891;28;20538;-77
2022/09/15 09:32:23;;;;;;;6.05;0.30;;;17.70;99.90;;;;;;4974302;28;20025;-77
2022/09/15 09:35:02;;;;;;;5.47;0.32;;;17.90;99.90;;;;;;4973958;28;20042;-77
2022/09/15 09:37:28;;;;;;;5.28;0.43;;;18.00;99.90;;;;;;4975689;28;20022;-77
2022/09/15 09:39:53;;;;;;;4.65;1.00;;;18.00;99.90;;;;;;4967084;28;20447;-77
2022/09/15 09:42:27;;;;;;;3.13;0.30;;;18.10;99.90;;;;;;4973916;28;20043;-77
2022/09/15 09:44:53;;;;;;;3.92;0.20;;;18.20;99.90;;;;;;4973232;28;20034;-77
2022/09/15 09:47:19;;;;;;;3.60;0.38;;;18.30;99.90;;;;;;4973791;28;20078;-77
2022/09/15 09:49:47;;;;;;;4.63;0.30;;;18.40;99.90;;;;;;4975208;28;20034;-77
2022/09/15 09:52:30;;;;;;;4.70;0.30;;;18.40;99.90;;;;;;4972590;28;20026;-77
2022/09/15 09:55:23;;;;;;;7.88;0.30;;;18.50;99.90;;;;;;4974125;28;20019;-77
2022/09/15 09:57:48;;;;;;;5.70;0.30;;;18.60;99.90;;;;;;4951012;28;20062;-77
2022/09/15 10:00:35;;;;;;;1.88;0.10;;;18.50;99.90;;;;;;4975013;28;20027;-77
2022/09/15 10:03:13;;;;;;;2.67;0.30;;;18.50;99.90;;;;;;4975310;28;20046;-77
2022/09/15 10:05:40;;;;;;;4.15;0.30;;;18.30;99.90;;;;;;4964722;28;21565;-77
2022/09/15 10:08:06;;;;;;;3.50;0.30;;;18.10;99.90;;;;;;4977203;28;20429;-77
2022/09/15 10:10:31;;;;;;;4.13;0.22;;;17.90;99.90;;;;;;4975421;28;20031;-77
2022/09/15 10:13:00;;;;;;;4.28;0.30;;;17.80;99.90;;;;;;4969551;28;20032;-77
2022/09/15 10:15:28;;;;;;;5.53;0.30;;;17.70;99.90;;;;;;4969395;28;20027;-77
2022/09/15 10:17:56;;;;;;;4.15;0.25;;;17.70;99.90;;;;;;4974822;28;20142;-77
2022/09/15 10:20:48;;;;;;;2.38;0.30;;;17.70;99.90;;;;;;4958882;28;20023;-77
2022/09/15 10:23:17;;;;;;;4.60;0.30;;;17.70;99.90;;;;;;4974315;28;20543;-77
2022/09/15 10:25:44;;;;;;;4.07;0.30;;;17.70;99.90;;;;;;4958914;28;20086;-77
2022/09/15 10:28:16;;;;;;;2.83;0.20;;;17.70;99.90;;;;;;4963869;28;20015;-77
2022/09/15 10:31:14;;;;;;;;;;;17.70;99.90;;;;;;4968724;28;20447;-77
2022/09/15 10:33:46;;;;;;;2.25;0.10;;;17.70;99.90;;;;;;4952857;28;19925;-77
2022/09/15 10:36:28;;;;;;;2.38;0.20;;;17.80;99.90;;;;;;4943749;28;20055;-77
2022/09/15 10:39:13;;;;;;;1.95;0.10;;;17.80;99.90;;;;;;4957730;28;20031;-77
2022/09/15 10:41:57;;;;;;;3.33;0.20;;;17.80;99.90;;;;;;4947715;28;20584;-77
2022/09/15 10:44:45;;;;;;;2.33;0.10;;;17.90;99.90;;;;;;4959566;28;20151;-77
2022/09/15 10:47:43;;;;;;;4.18;0.10;;;17.80;99.90;;;;;;4939790;29;20503;-77
2022/09/15 10:50:31;;;;;;;5.35;0.20;;;17.80;99.90;;;;;;4935732;29;20058;-77
2022/09/15 10:53:29;;;;;;;2.83;0.20;;;17.80;99.90;;;;;;4953241;28;20023;-77
2022/09/15 10:56:22;;;;;;;3.67;0.20;;;17.80;99.90;;;;;;4952189;28;20369;-77
2022/09/15 10:59:03;;;;;;;4.40;0.30;;;17.90;99.90;;;;;;4947079;28;20028;-77
2022/09/15 11:01:29;;;;;;;2.45;0.30;;;18.00;99.90;;;;;;4941740;29;20027;-77
2022/09/15 11:04:09;;;;;;;4.30;0.30;;;18.00;99.90;;;;;;4935733;29;20027;-77
2022/09/15 11:06:44;;;;;;;2.80;0.28;;;18.10;99.90;;;;;;4953032;29;20039;-77
2022/09/15 11:09:31;;;;;;;4.63;0.30;;;18.10;99.90;;;;;;4965370;28;20078;-77
2022/09/15 11:12:42;;;;;;;4.40;0.38;;;18.20;99.90;;;;;;4947567;28;20107;-76
2022/09/15 11:15:57;;;;;;;7.10;0.55;;;18.30;99.90;;;;;;4938801;28;20032;-77
2022/09/15 11:18:50;;;;;;;3.55;0.38;;;18.40;99.90;;;;;;4951300;28;20038;-77
2022/09/15 11:21:26;;;;;;;2.28;0.20;;;18.60;99.90;;;;;;4950564;29;20024;-77
2022/09/15 11:24:16;;;;;;;3.78;0.20;;;18.80;99.90;;;;;;4949731;28;20500;-77
2022/09/15 11:26:51;;;;;;;3.70;0.20;;;19.00;99.90;;;;;;4964331;28;20052;-76
2022/09/15 11:29:26;;;;;;;2.92;0.20;;;19.30;99.90;;;;;;4949978;28;20036;-76
2022/09/15 11:32:01;;;;;;;2.50;0.20;;;19.30;99.90;;;;;;4938992;29;20388;-77
2022/09/15 11:34:41;;;;;;;3.22;0.30;;;19.50;99.90;;;;;;4953131;28;20447;-77
2022/09/15 11:37:32;;;;;;;4.30;0.30;;;19.60;99.90;;;;;;4976771;28;20383;-77
2022/09/15 11:40:16;;;;;;;7.30;0.88;;;19.80;99.90;;;;;;4975896;28;20027;-77
2022/09/15 11:42:50;;;;;;;3.05;0.30;;;19.80;99.90;;;;;;4977824;28;20026;-77
2022/09/15 11:45:22;;;;;;;4.03;0.50;;;20.00;99.90;;;;;;4976544;28;20387;-77
2022/09/15 11:47:55;;;;;;;5.72;0.85;;;20.20;99.90;;;;;;4977749;28;20038;-77
2022/09/15 11:50:29;;;;;;;6.45;0.30;;;20.40;99.90;;;;;;4986141;28;20498;-77
2022/09/15 11:53:01;;;;;;;6.40;0.38;;;20.30;99.90;;;;;;4971490;28;20034;-77
2022/09/15 11:55:38;;;;;;;4.13;0.30;;;20.30;99.90;;;;;;4974402;28;20022;-77
2022/09/15 11:58:18;;;;;;;4.15;0.40;;;20.40;99.90;;;;;;4983256;28;20043;-77
2022/09/15 12:01:07;;;;;;;2.30;0.20;;;20.50;99.90;;;;;;4977318;28;20041;-77
2022/09/15 12:03:55;;;;;;;3.80;0.20;;;20.60;99.90;;;;;;4982093;28;20476;-77
2022/09/15 12:06:55;;;;;;;5.22;0.45;;;20.60;99.70;;;;;;4976189;28;20129;-77
2022/09/15 12:09:21;;;;;;;3.00;0.30;;;20.60;99.60;;;;;;4963675;28;20522;-77
2022/09/15 12:11:50;;;;;;;1.40;0.20;;;20.70;98.90;;;;;;4978796;28;20038;-77
2022/09/15 12:14:31;;;;;;;2.95;0.30;;;20.60;98.90;;;;;;4971258;28;20023;-77
2022/09/15 12:16:58;;;;;;;5.32;0.88;;;20.70;98.90;;;;;;4976102;28;20058;-77
2022/09/15 12:20:04;;;;;;;4.82;0.40;;;20.80;96.50;;;;;;4983761;28;20037;-77
2022/09/15 12:22:39;;;;;;;3.75;0.20;;;20.70;95.30;;;;;;4983798;28;20031;-77
2022/09/15 12:25:13;;;;;;;3.90;0.40;;;20.70;95.00;;;;;;4976890;28;20039;-76
2022/09/15 12:27:39;;;;;;;2.50;0.30;;;20.70;94.00;;;;;;4982613;28;20106;-77
2022/09/15 12:30:05;;;;;;;4.88;0.30;;;20.70;93.50;;;;;;4979172;28;20030;-77
2022/09/15 12:32:33;;;;;;;1.58;0.20;;;20.60;92.50;;;;;;4994156;28;20030;-77
2022/09/15 12:35:05;;;;;;;2.72;0.20;;;20.50;91.60;;;;;;4974334;28;20024;-77
2022/09/15 12:37:42;;;;;;;3.15;0.20;;;20.40;91.40;;;;;;4979747;28;20023;-77
2022/09/15 12:40:31;;;;;;;2.95;0.30;;;20.20;90.60;;;;;;4988644;28;20042;-77
2022/09/15 12:42:57;;;;;;;5.82;0.30;;;20.00;90.30;;;;;;4971293;28;20110;-77
2022/09/15 12:45:26;;;;;;;3.20;0.20;;;19.90;90.30;;;;;;4977212;28;20133;-77
2022/09/15 12:48:01;;;;;;;3.97;0.20;;;19.90;90.20;;;;;;4990754;28;20102;-77
2022/09/15 12:50:34;;;;;;;2.38;0.70;;;20.00;90.20;;;;;;4986372;28;20467;-77
2022/09/15 12:53:17;;;;;;;2.75;0.20;;;20.10;90.10;;;;;;4988555;28;20165;-77
2022/09/15 12:55:50;;;;;;;1.45;0.20;;;20.10;89.20;;;;;;4976078;28;20030;-76
2022/09/15 12:58:19;;;;;;;2.83;0.20;;;20.00;87.50;;;;;;4970842;28;20130;-77
2022/09/15 13:00:46;;;;;;;3.28;0.20;;;20.10;87.60;;;;;;4980130;28;20037;-77
2022/09/15 13:03:50;;;;;;;2.03;0.20;;;20.00;86.70;;;;;;4986638;28;20023;-77